sensor_id;sensor_type;location;lat;lon;timestamp;P1;durP1;ratioP1;P2;durP2;ratioP2
31730;SDS011;18310;55.586;12.286;2023-02-28T00:02:04;18.27;;;8.00;;
31730;SDS011;18310;55.586;12.286;2023-02-28T00:05:11;15.63;;;8.20;;
31730;SDS011;18310;55.586;12.286;2023-02-28T00:08:18;18.38;;;8.23;;
31730;SDS011;18310;55.586;12.286;2023-02-28T00:11:22;13.68;;;6.97;;
31730;SDS011;18310;55.586;12.286;2023-02-28T00:14:29;14.60;;;7.70;;
31730;SDS011;18310;55.586;12.286;2023-02-28T00:17:33;13.40;;;7.43;;
31730;SDS011;18310;55.586;12.286;2023-02-28T00:20:38;13.45;;;7.80;;
31730;SDS011;18310;55.586;12.286;2023-02-28T00:23:42;17.30;;;8.75;;
31730;SDS011;18310;55.586;12.286;2023-02-28T00:26:46;15.88;;;8.57;;
31730;SDS011;18310;55.586;12.286;2023-02-28T00:29:50;15.10;;;7.63;;
31730;SDS011;18310;55.586;12.286;2023-02-28T00:32:55;11.82;;;6.53;;
31730;SDS011;18310;55.586;12.286;2023-02-28T00:36:07;12.52;;;6.50;;
31730;SDS011;18310;55.586;12.286;2023-02-28T00:39:13;14.10;;;6.82;;
31730;SDS011;18310;55.586;12.286;2023-02-28T00:42:18;12.73;;;6.35;;
31730;SDS011;18310;55.586;12.286;2023-02-28T00:48:25;12.90;;;6.57;;
31730;SDS011;18310;55.586;12.286;2023-02-28T00:51:31;15.00;;;6.60;;
31730;SDS011;18310;55.586;12.286;2023-02-28T00:54:35;14.10;;;6.43;;
31730;SDS011;18310;55.586;12.286;2023-02-28T00:57:39;10.52;;;5.85;;
31730;SDS011;18310;55.586;12.286;2023-02-28T01:00:44;15.75;;;6.63;;
31730;SDS011;18310;55.586;12.286;2023-02-28T01:03:51;11.38;;;5.97;;
31730;SDS011;18310;55.586;12.286;2023-02-28T01:06:56;12.65;;;5.20;;
31730;SDS011;18310;55.586;12.286;2023-02-28T01:10:00;13.15;;;5.80;;
31730;SDS011;18310;55.586;12.286;2023-02-28T01:13:03;12.15;;;6.05;;
31730;SDS011;18310;55.586;12.286;2023-02-28T01:19:12;11.60;;;6.38;;
31730;SDS011;18310;55.586;12.286;2023-02-28T01:22:17;12.55;;;6.88;;
31730;SDS011;18310;55.586;12.286;2023-02-28T01:25:21;14.82;;;6.72;;
31730;SDS011;18310;55.586;12.286;2023-02-28T01:28:25;15.73;;;7.00;;
31730;SDS011;18310;55.586;12.286;2023-02-28T01:31:31;16.50;;;7.40;;
31730;SDS011;18310;55.586;12.286;2023-02-28T01:34:36;17.55;;;8.27;;
31730;SDS011;18310;55.586;12.286;2023-02-28T01:37:42;17.08;;;7.88;;
31730;SDS011;18310;55.586;12.286;2023-02-28T01:40:46;15.27;;;7.95;;
31730;SDS011;18310;55.586;12.286;2023-02-28T01:46:59;16.17;;;7.38;;
31730;SDS011;18310;55.586;12.286;2023-02-28T01:50:05;11.43;;;6.70;;
31730;SDS011;18310;55.586;12.286;2023-02-28T01:53:21;16.45;;;7.45;;
31730;SDS011;18310;55.586;12.286;2023-02-28T01:56:47;14.05;;;6.88;;
31730;SDS011;18310;55.586;12.286;2023-02-28T01:59:57;14.15;;;6.80;;
31730;SDS011;18310;55.586;12.286;2023-02-28T02:03:05;14.65;;;7.65;;
31730;SDS011;18310;55.586;12.286;2023-02-28T02:06:13;16.13;;;6.90;;
31730;SDS011;18310;55.586;12.286;2023-02-28T02:12:53;13.35;;;6.75;;
31730;SDS011;18310;55.586;12.286;2023-02-28T02:16:24;14.55;;;6.35;;
31730;SDS011;18310;55.586;12.286;2023-02-28T02:19:46;12.43;;;6.53;;
31730;SDS011;18310;55.586;12.286;2023-02-28T02:23:46;14.95;;;6.72;;
31730;SDS011;18310;55.586;12.286;2023-02-28T02:27:58;14.07;;;7.00;;
31730;SDS011;18310;55.586;12.286;2023-02-28T02:31:49;13.68;;;6.25;;
31730;SDS011;18310;55.586;12.286;2023-02-28T02:35:33;13.98;;;6.32;;
31730;SDS011;18310;55.586;12.286;2023-02-28T02:38:52;12.65;;;6.13;;
31730;SDS011;18310;55.586;12.286;2023-02-28T02:42:04;12.27;;;6.55;;
31730;SDS011;18310;55.586;12.286;2023-02-28T02:45:19;15.05;;;6.28;;
31730;SDS011;18310;55.586;12.286;2023-02-28T02:48:30;11.23;;;5.95;;
31730;SDS011;18310;55.586;12.286;2023-02-28T02:51:39;11.30;;;6.25;;
31730;SDS011;18310;55.586;12.286;2023-02-28T02:54:45;13.68;;;6.30;;
31730;SDS011;18310;55.586;12.286;2023-02-28T02:57:52;14.27;;;6.28;;
31730;SDS011;18310;55.586;12.286;2023-02-28T03:01:02;10.13;;;5.93;;
31730;SDS011;18310;55.586;12.286;2023-02-28T03:04:15;10.70;;;5.38;;
31730;SDS011;18310;55.586;12.286;2023-02-28T03:07:26;12.40;;;5.55;;
31730;SDS011;18310;55.586;12.286;2023-02-28T03:10:36;8.85;;;4.97;;
31730;SDS011;18310;55.586;12.286;2023-02-28T03:17:57;10.32;;;5.22;;
31730;SDS011;18310;55.586;12.286;2023-02-28T03:21:12;10.27;;;5.60;;
31730;SDS011;18310;55.586;12.286;2023-02-28T03:24:34;10.77;;;5.18;;
31730;SDS011;18310;55.586;12.286;2023-02-28T03:27:53;13.93;;;5.80;;
31730;SDS011;18310;55.586;12.286;2023-02-28T03:31:07;9.48;;;5.32;;
31730;SDS011;18310;55.586;12.286;2023-02-28T03:34:23;10.63;;;5.50;;
31730;SDS011;18310;55.586;12.286;2023-02-28T03:37:33;10.65;;;5.38;;
31730;SDS011;18310;55.586;12.286;2023-02-28T03:40:45;11.32;;;5.13;;
31730;SDS011;18310;55.586;12.286;2023-02-28T03:43:56;10.87;;;5.13;;
31730;SDS011;18310;55.586;12.286;2023-02-28T03:47:07;8.88;;;4.82;;
31730;SDS011;18310;55.586;12.286;2023-02-28T03:50:16;10.90;;;5.40;;
31730;SDS011;18310;55.586;12.286;2023-02-28T03:53:27;8.57;;;4.88;;
31730;SDS011;18310;55.586;12.286;2023-02-28T03:56:38;8.00;;;4.80;;
31730;SDS011;18310;55.586;12.286;2023-02-28T03:59:49;10.10;;;5.45;;
31730;SDS011;18310;55.586;12.286;2023-02-28T04:02:59;10.18;;;4.50;;
31730;SDS011;18310;55.586;12.286;2023-02-28T04:06:03;11.32;;;5.50;;
31730;SDS011;18310;55.586;12.286;2023-02-28T04:09:11;10.50;;;5.45;;
31730;SDS011;18310;55.586;12.286;2023-02-28T04:12:18;9.60;;;5.03;;
31730;SDS011;18310;55.586;12.286;2023-02-28T04:15:25;12.70;;;5.53;;
31730;SDS011;18310;55.586;12.286;2023-02-28T04:18:29;11.18;;;5.30;;
31730;SDS011;18310;55.586;12.286;2023-02-28T04:21:34;12.07;;;6.28;;
31730;SDS011;18310;55.586;12.286;2023-02-28T04:24:42;11.38;;;6.43;;
31730;SDS011;18310;55.586;12.286;2023-02-28T04:27:47;11.25;;;6.47;;
31730;SDS011;18310;55.586;12.286;2023-02-28T04:30:54;16.25;;;6.25;;
31730;SDS011;18310;55.586;12.286;2023-02-28T04:33:59;9.32;;;5.43;;
31730;SDS011;18310;55.586;12.286;2023-02-28T04:37:08;11.85;;;6.05;;
31730;SDS011;18310;55.586;12.286;2023-02-28T04:40:14;14.80;;;6.43;;
31730;SDS011;18310;55.586;12.286;2023-02-28T04:43:22;12.40;;;6.82;;
31730;SDS011;18310;55.586;12.286;2023-02-28T04:46:25;13.00;;;6.40;;
31730;SDS011;18310;55.586;12.286;2023-02-28T04:49:29;10.07;;;6.25;;
31730;SDS011;18310;55.586;12.286;2023-02-28T04:52:34;9.35;;;6.20;;
31730;SDS011;18310;55.586;12.286;2023-02-28T04:55:37;12.70;;;6.75;;
31730;SDS011;18310;55.586;12.286;2023-02-28T04:58:44;13.38;;;6.90;;
31730;SDS011;18310;55.586;12.286;2023-02-28T05:01:48;11.70;;;6.80;;
31730;SDS011;18310;55.586;12.286;2023-02-28T05:04:54;11.88;;;6.57;;
31730;SDS011;18310;55.586;12.286;2023-02-28T05:07:57;12.20;;;6.70;;
31730;SDS011;18310;55.586;12.286;2023-02-28T05:11:01;15.38;;;6.40;;
31730;SDS011;18310;55.586;12.286;2023-02-28T05:14:09;17.75;;;7.00;;
31730;SDS011;18310;55.586;12.286;2023-02-28T05:17:16;11.60;;;6.75;;
31730;SDS011;18310;55.586;12.286;2023-02-28T05:20:19;14.73;;;7.72;;
31730;SDS011;18310;55.586;12.286;2023-02-28T05:23:23;14.05;;;7.43;;
31730;SDS011;18310;55.586;12.286;2023-02-28T05:26:27;15.02;;;7.55;;
31730;SDS011;18310;55.586;12.286;2023-02-28T05:29:33;14.45;;;8.45;;
31730;SDS011;18310;55.586;12.286;2023-02-28T05:32:49;15.18;;;8.93;;
31730;SDS011;18310;55.586;12.286;2023-02-28T05:35:54;15.73;;;8.55;;
31730;SDS011;18310;55.586;12.286;2023-02-28T05:39:00;19.35;;;8.88;;
31730;SDS011;18310;55.586;12.286;2023-02-28T05:42:05;16.30;;;7.70;;
31730;SDS011;18310;55.586;12.286;2023-02-28T05:45:10;15.00;;;8.45;;
31730;SDS011;18310;55.586;12.286;2023-02-28T05:48:16;16.27;;;8.02;;
31730;SDS011;18310;55.586;12.286;2023-02-28T05:51:19;12.38;;;7.38;;
31730;SDS011;18310;55.586;12.286;2023-02-28T05:54:24;15.07;;;8.65;;
31730;SDS011;18310;55.586;12.286;2023-02-28T06:00:33;18.48;;;8.73;;
31730;SDS011;18310;55.586;12.286;2023-02-28T06:03:39;19.40;;;10.75;;
31730;SDS011;18310;55.586;12.286;2023-02-28T06:06:42;17.40;;;9.05;;
31730;SDS011;18310;55.586;12.286;2023-02-28T06:09:46;16.58;;;8.98;;
31730;SDS011;18310;55.586;12.286;2023-02-28T06:12:49;18.58;;;10.32;;
31730;SDS011;18310;55.586;12.286;2023-02-28T06:15:56;23.00;;;11.00;;
31730;SDS011;18310;55.586;12.286;2023-02-28T06:19:03;18.35;;;10.35;;
31730;SDS011;18310;55.586;12.286;2023-02-28T06:22:08;19.02;;;9.85;;
31730;SDS011;18310;55.586;12.286;2023-02-28T06:25:12;22.52;;;10.50;;
31730;SDS011;18310;55.586;12.286;2023-02-28T06:28:17;21.60;;;11.60;;
31730;SDS011;18310;55.586;12.286;2023-02-28T06:31:22;17.20;;;9.20;;
31730;SDS011;18310;55.586;12.286;2023-02-28T06:34:27;20.25;;;10.43;;
31730;SDS011;18310;55.586;12.286;2023-02-28T06:40:35;17.20;;;10.25;;
31730;SDS011;18310;55.586;12.286;2023-02-28T06:43:40;20.33;;;10.63;;
31730;SDS011;18310;55.586;12.286;2023-02-28T06:46:47;19.75;;;10.43;;
31730;SDS011;18310;55.586;12.286;2023-02-28T06:49:52;18.95;;;10.20;;
31730;SDS011;18310;55.586;12.286;2023-02-28T06:52:57;19.30;;;11.07;;
31730;SDS011;18310;55.586;12.286;2023-02-28T06:56:07;22.40;;;10.20;;
31730;SDS011;18310;55.586;12.286;2023-02-28T06:59:13;23.13;;;10.77;;
31730;SDS011;18310;55.586;12.286;2023-02-28T07:05:23;23.95;;;10.40;;
31730;SDS011;18310;55.586;12.286;2023-02-28T07:08:26;17.63;;;10.68;;
31730;SDS011;18310;55.586;12.286;2023-02-28T07:11:32;20.25;;;11.02;;
31730;SDS011;18310;55.586;12.286;2023-02-28T07:14:37;18.92;;;10.55;;
31730;SDS011;18310;55.586;12.286;2023-02-28T07:17:42;20.48;;;10.38;;
31730;SDS011;18310;55.586;12.286;2023-02-28T07:20:46;22.15;;;11.40;;
31730;SDS011;18310;55.586;12.286;2023-02-28T07:23:50;21.27;;;11.35;;
31730;SDS011;18310;55.586;12.286;2023-02-28T07:26:54;22.35;;;11.70;;
31730;SDS011;18310;55.586;12.286;2023-02-28T07:29:58;24.27;;;13.07;;
31730;SDS011;18310;55.586;12.286;2023-02-28T07:33:04;27.05;;;13.90;;
31730;SDS011;18310;55.586;12.286;2023-02-28T07:36:09;24.98;;;13.65;;
31730;SDS011;18310;55.586;12.286;2023-02-28T07:39:16;28.15;;;16.05;;
31730;SDS011;18310;55.586;12.286;2023-02-28T07:42:21;22.90;;;12.95;;
31730;SDS011;18310;55.586;12.286;2023-02-28T07:45:24;21.38;;;11.57;;
31730;SDS011;18310;55.586;12.286;2023-02-28T07:48:29;20.52;;;11.63;;
31730;SDS011;18310;55.586;12.286;2023-02-28T07:51:33;27.17;;;10.73;;
31730;SDS011;18310;55.586;12.286;2023-02-28T07:54:36;21.02;;;11.10;;
31730;SDS011;18310;55.586;12.286;2023-02-28T07:57:41;19.40;;;9.80;;
31730;SDS011;18310;55.586;12.286;2023-02-28T08:00:46;21.23;;;10.93;;
31730;SDS011;18310;55.586;12.286;2023-02-28T08:03:51;20.73;;;9.13;;
31730;SDS011;18310;55.586;12.286;2023-02-28T08:06:56;24.58;;;10.70;;
31730;SDS011;18310;55.586;12.286;2023-02-28T08:10:00;20.67;;;10.65;;
31730;SDS011;18310;55.586;12.286;2023-02-28T08:13:07;15.35;;;9.63;;
31730;SDS011;18310;55.586;12.286;2023-02-28T08:16:11;17.17;;;9.60;;
31730;SDS011;18310;55.586;12.286;2023-02-28T08:19:24;16.77;;;9.63;;
31730;SDS011;18310;55.586;12.286;2023-02-28T08:22:29;14.00;;;8.68;;
31730;SDS011;18310;55.586;12.286;2023-02-28T08:25:33;13.98;;;8.07;;
31730;SDS011;18310;55.586;12.286;2023-02-28T08:28:37;14.00;;;7.50;;
31730;SDS011;18310;55.586;12.286;2023-02-28T08:34:49;18.83;;;7.95;;
31730;SDS011;18310;55.586;12.286;2023-02-28T08:37:55;13.60;;;7.10;;
31730;SDS011;18310;55.586;12.286;2023-02-28T08:41:00;14.40;;;7.18;;
31730;SDS011;18310;55.586;12.286;2023-02-28T08:44:07;13.70;;;6.80;;
31730;SDS011;18310;55.586;12.286;2023-02-28T08:47:11;13.43;;;7.05;;
31730;SDS011;18310;55.586;12.286;2023-02-28T08:50:17;13.57;;;8.00;;
31730;SDS011;18310;55.586;12.286;2023-02-28T08:53:20;13.80;;;8.05;;
31730;SDS011;18310;55.586;12.286;2023-02-28T08:56:24;11.70;;;7.60;;
31730;SDS011;18310;55.586;12.286;2023-02-28T09:02:32;15.37;;;6.70;;
31730;SDS011;18310;55.586;12.286;2023-02-28T09:05:37;11.77;;;6.68;;
31730;SDS011;18310;55.586;12.286;2023-02-28T09:08:41;14.27;;;7.18;;
31730;SDS011;18310;55.586;12.286;2023-02-28T09:11:45;15.25;;;6.47;;
31730;SDS011;18310;55.586;12.286;2023-02-28T09:14:48;9.23;;;6.17;;
31730;SDS011;18310;55.586;12.286;2023-02-28T09:17:56;9.13;;;5.47;;
31730;SDS011;18310;55.586;12.286;2023-02-28T09:21:03;16.40;;;6.68;;
31730;SDS011;18310;55.586;12.286;2023-02-28T09:24:08;14.23;;;5.65;;
31730;SDS011;18310;55.586;12.286;2023-02-28T09:27:17;8.98;;;5.65;;
31730;SDS011;18310;55.586;12.286;2023-02-28T09:30:23;10.23;;;5.25;;
31730;SDS011;18310;55.586;12.286;2023-02-28T09:33:29;11.90;;;4.72;;
31730;SDS011;18310;55.586;12.286;2023-02-28T09:36:35;11.05;;;4.43;;
31730;SDS011;18310;55.586;12.286;2023-02-28T09:39:45;6.40;;;3.55;;
31730;SDS011;18310;55.586;12.286;2023-02-28T09:42:51;5.72;;;3.55;;
31730;SDS011;18310;55.586;12.286;2023-02-28T09:46:00;9.27;;;3.75;;
31730;SDS011;18310;55.586;12.286;2023-02-28T09:49:16;10.02;;;4.20;;
31730;SDS011;18310;55.586;12.286;2023-02-28T09:52:28;6.90;;;3.80;;
31730;SDS011;18310;55.586;12.286;2023-02-28T09:55:36;7.32;;;3.45;;
31730;SDS011;18310;55.586;12.286;2023-02-28T09:58:49;7.78;;;3.40;;
31730;SDS011;18310;55.586;12.286;2023-02-28T10:02:00;5.80;;;3.58;;
31730;SDS011;18310;55.586;12.286;2023-02-28T10:05:15;7.43;;;4.30;;
31730;SDS011;18310;55.586;12.286;2023-02-28T10:08:25;8.27;;;3.95;;
31730;SDS011;18310;55.586;12.286;2023-02-28T10:11:35;8.60;;;4.25;;
31730;SDS011;18310;55.586;12.286;2023-02-28T10:14:44;8.43;;;4.35;;
31730;SDS011;18310;55.586;12.286;2023-02-28T10:18:12;6.53;;;3.40;;
31730;SDS011;18310;55.586;12.286;2023-02-28T10:21:26;10.68;;;4.28;;
31730;SDS011;18310;55.586;12.286;2023-02-28T10:24:39;6.40;;;3.53;;
31730;SDS011;18310;55.586;12.286;2023-02-28T10:27:46;6.82;;;3.42;;
31730;SDS011;18310;55.586;12.286;2023-02-28T10:30:52;9.05;;;3.83;;
31730;SDS011;18310;55.586;12.286;2023-02-28T10:33:58;11.43;;;4.18;;
31730;SDS011;18310;55.586;12.286;2023-02-28T10:37:05;7.43;;;3.33;;
31730;SDS011;18310;55.586;12.286;2023-02-28T10:40:32;3.63;;;1.60;;
31730;SDS011;18310;55.586;12.286;2023-02-28T10:43:38;3.65;;;1.58;;
31730;SDS011;18310;55.586;12.286;2023-02-28T10:46:46;3.75;;;1.70;;
31730;SDS011;18310;55.586;12.286;2023-02-28T10:49:51;5.85;;;2.50;;
31730;SDS011;18310;55.586;12.286;2023-02-28T10:52:55;5.03;;;2.58;;
31730;SDS011;18310;55.586;12.286;2023-02-28T10:56:30;6.07;;;2.33;;
31730;SDS011;18310;55.586;12.286;2023-02-28T10:59:37;3.40;;;1.60;;
31730;SDS011;18310;55.586;12.286;2023-02-28T11:02:41;3.17;;;1.30;;
31730;SDS011;18310;55.586;12.286;2023-02-28T11:05:53;4.57;;;1.63;;
31730;SDS011;18310;55.586;12.286;2023-02-28T11:08:57;3.95;;;2.03;;
31730;SDS011;18310;55.586;12.286;2023-02-28T11:12:10;4.97;;;1.70;;
31730;SDS011;18310;55.586;12.286;2023-02-28T11:15:28;6.22;;;1.90;;
31730;SDS011;18310;55.586;12.286;2023-02-28T11:18:36;4.80;;;1.80;;
31730;SDS011;18310;55.586;12.286;2023-02-28T11:21:48;4.10;;;2.03;;
31730;SDS011;18310;55.586;12.286;2023-02-28T11:24:59;6.43;;;2.22;;
31730;SDS011;18310;55.586;12.286;2023-02-28T11:28:24;4.35;;;1.95;;
31730;SDS011;18310;55.586;12.286;2023-02-28T11:31:32;4.82;;;2.10;;
31730;SDS011;18310;55.586;12.286;2023-02-28T11:34:38;7.75;;;4.45;;
31730;SDS011;18310;55.586;12.286;2023-02-28T11:37:43;5.32;;;2.25;;
31730;SDS011;18310;55.586;12.286;2023-02-28T11:40:49;4.82;;;2.08;;
31730;SDS011;18310;55.586;12.286;2023-02-28T11:44:18;5.65;;;1.60;;
31730;SDS011;18310;55.586;12.286;2023-02-28T11:47:37;4.05;;;1.70;;
31730;SDS011;18310;55.586;12.286;2023-02-28T11:50:53;5.32;;;1.75;;
31730;SDS011;18310;55.586;12.286;2023-02-28T11:54:21;4.30;;;2.00;;
31730;SDS011;18310;55.586;12.286;2023-02-28T11:57:44;4.25;;;1.88;;
31730;SDS011;18310;55.586;12.286;2023-02-28T12:01:17;4.50;;;1.85;;
31730;SDS011;18310;55.586;12.286;2023-02-28T12:04:38;3.55;;;1.58;;
31730;SDS011;18310;55.586;12.286;2023-02-28T12:08:02;4.88;;;2.15;;
31730;SDS011;18310;55.586;12.286;2023-02-28T12:11:29;6.22;;;2.08;;
31730;SDS011;18310;55.586;12.286;2023-02-28T12:18:57;4.93;;;2.42;;
31730;SDS011;18310;55.586;12.286;2023-02-28T12:22:32;7.35;;;2.63;;
31730;SDS011;18310;55.586;12.286;2023-02-28T12:25:50;4.57;;;2.67;;
31730;SDS011;18310;55.586;12.286;2023-02-28T12:29:09;6.40;;;3.10;;
31730;SDS011;18310;55.586;12.286;2023-02-28T12:32:22;7.68;;;2.88;;
31730;SDS011;18310;55.586;12.286;2023-02-28T12:35:37;5.38;;;2.67;;
31730;SDS011;18310;55.586;12.286;2023-02-28T12:38:51;7.60;;;2.75;;
31730;SDS011;18310;55.586;12.286;2023-02-28T12:42:03;6.43;;;2.80;;
31730;SDS011;18310;55.586;12.286;2023-02-28T12:45:15;6.82;;;2.67;;
31730;SDS011;18310;55.586;12.286;2023-02-28T12:48:24;7.97;;;2.78;;
31730;SDS011;18310;55.586;12.286;2023-02-28T12:51:41;8.88;;;2.47;;
31730;SDS011;18310;55.586;12.286;2023-02-28T12:54:48;4.78;;;2.53;;
31730;SDS011;18310;55.586;12.286;2023-02-28T12:58:01;5.90;;;2.60;;
31730;SDS011;18310;55.586;12.286;2023-02-28T13:05:25;4.78;;;2.20;;
31730;SDS011;18310;55.586;12.286;2023-02-28T13:09:01;7.20;;;2.60;;
31730;SDS011;18310;55.586;12.286;2023-02-28T13:12:16;5.80;;;2.63;;
31730;SDS011;18310;55.586;12.286;2023-02-28T13:15:27;4.18;;;2.50;;
31730;SDS011;18310;55.586;12.286;2023-02-28T13:18:38;6.45;;;2.45;;
31730;SDS011;18310;55.586;12.286;2023-02-28T13:22:16;4.45;;;2.15;;
31730;SDS011;18310;55.586;12.286;2023-02-28T13:25:51;3.63;;;2.08;;
31730;SDS011;18310;55.586;12.286;2023-02-28T13:28:57;6.30;;;2.00;;
31730;SDS011;18310;55.586;12.286;2023-02-28T13:35:45;3.50;;;1.88;;
31730;SDS011;18310;55.586;12.286;2023-02-28T13:38:51;4.40;;;1.95;;
31730;SDS011;18310;55.586;12.286;2023-02-28T13:41:58;4.50;;;2.08;;
31730;SDS011;18310;55.586;12.286;2023-02-28T13:45:39;4.93;;;3.20;;
31730;SDS011;18310;55.586;12.286;2023-02-28T13:49:19;6.32;;;2.33;;
31730;SDS011;18310;55.586;12.286;2023-02-28T13:52:30;6.05;;;2.60;;
31730;SDS011;18310;55.586;12.286;2023-02-28T13:55:53;6.53;;;2.65;;
31730;SDS011;18310;55.586;12.286;2023-02-28T13:59:06;5.13;;;2.28;;
31730;SDS011;18310;55.586;12.286;2023-02-28T14:02:37;5.05;;;2.47;;
31730;SDS011;18310;55.586;12.286;2023-02-28T14:06:08;5.63;;;1.95;;
31730;SDS011;18310;55.586;12.286;2023-02-28T14:09:31;6.18;;;2.80;;
31730;SDS011;18310;55.586;12.286;2023-02-28T14:12:52;4.75;;;2.40;;
31730;SDS011;18310;55.586;12.286;2023-02-28T14:16:03;7.60;;;2.55;;
31730;SDS011;18310;55.586;12.286;2023-02-28T14:19:14;5.72;;;2.80;;
31730;SDS011;18310;55.586;12.286;2023-02-28T14:22:32;5.10;;;2.72;;
31730;SDS011;18310;55.586;12.286;2023-02-28T14:25:59;4.50;;;2.17;;
31730;SDS011;18310;55.586;12.286;2023-02-28T14:33:13;7.03;;;2.50;;
31730;SDS011;18310;55.586;12.286;2023-02-28T14:36:32;6.63;;;2.72;;
31730;SDS011;18310;55.586;12.286;2023-02-28T14:39:43;6.03;;;2.53;;
31730;SDS011;18310;55.586;12.286;2023-02-28T14:42:55;4.32;;;2.30;;
31730;SDS011;18310;55.586;12.286;2023-02-28T14:46:02;4.00;;;2.50;;
31730;SDS011;18310;55.586;12.286;2023-02-28T14:49:12;5.50;;;2.67;;
31730;SDS011;18310;55.586;12.286;2023-02-28T14:52:23;5.05;;;2.75;;
31730;SDS011;18310;55.586;12.286;2023-02-28T14:55:33;6.30;;;3.13;;
31730;SDS011;18310;55.586;12.286;2023-02-28T14:58:39;8.18;;;3.40;;
31730;SDS011;18310;55.586;12.286;2023-02-28T15:01:43;5.45;;;3.40;;
31730;SDS011;18310;55.586;12.286;2023-02-28T15:04:56;6.35;;;2.80;;
31730;SDS011;18310;55.586;12.286;2023-02-28T15:08:06;11.65;;;3.33;;
31730;SDS011;18310;55.586;12.286;2023-02-28T15:11:17;4.53;;;2.75;;
31730;SDS011;18310;55.586;12.286;2023-02-28T15:14:27;6.32;;;3.30;;
31730;SDS011;18310;55.586;12.286;2023-02-28T15:17:32;7.63;;;3.20;;
31730;SDS011;18310;55.586;12.286;2023-02-28T15:20:38;7.00;;;3.28;;
31730;SDS011;18310;55.586;12.286;2023-02-28T15:23:46;5.47;;;2.97;;
31730;SDS011;18310;55.586;12.286;2023-02-28T15:26:57;6.60;;;2.88;;
31730;SDS011;18310;55.586;12.286;2023-02-28T15:30:08;7.28;;;3.13;;
31730;SDS011;18310;55.586;12.286;2023-02-28T15:33:26;6.10;;;3.40;;
31730;SDS011;18310;55.586;12.286;2023-02-28T15:36:34;7.65;;;3.35;;
31730;SDS011;18310;55.586;12.286;2023-02-28T15:39:46;5.65;;;3.30;;
31730;SDS011;18310;55.586;12.286;2023-02-28T15:42:59;6.25;;;3.08;;
31730;SDS011;18310;55.586;12.286;2023-02-28T15:46:12;5.82;;;3.10;;
31730;SDS011;18310;55.586;12.286;2023-02-28T15:49:19;9.10;;;3.95;;
31730;SDS011;18310;55.586;12.286;2023-02-28T15:52:27;5.97;;;2.85;;
31730;SDS011;18310;55.586;12.286;2023-02-28T15:55:44;8.13;;;3.45;;
31730;SDS011;18310;55.586;12.286;2023-02-28T15:59:02;6.43;;;2.92;;
31730;SDS011;18310;55.586;12.286;2023-02-28T16:02:16;7.60;;;3.08;;
31730;SDS011;18310;55.586;12.286;2023-02-28T16:05:24;7.28;;;3.00;;
31730;SDS011;18310;55.586;12.286;2023-02-28T16:08:33;8.13;;;3.20;;
31730;SDS011;18310;55.586;12.286;2023-02-28T16:11:40;6.85;;;3.05;;
31730;SDS011;18310;55.586;12.286;2023-02-28T16:14:51;7.57;;;3.28;;
31730;SDS011;18310;55.586;12.286;2023-02-28T16:18:07;8.15;;;3.45;;
31730;SDS011;18310;55.586;12.286;2023-02-28T16:21:35;7.78;;;3.03;;
31730;SDS011;18310;55.586;12.286;2023-02-28T16:24:41;5.75;;;3.13;;
31730;SDS011;18310;55.586;12.286;2023-02-28T16:27:48;5.93;;;3.58;;
31730;SDS011;18310;55.586;12.286;2023-02-28T16:30:55;11.02;;;3.65;;
31730;SDS011;18310;55.586;12.286;2023-02-28T16:34:03;9.20;;;3.80;;
31730;SDS011;18310;55.586;12.286;2023-02-28T16:37:16;9.02;;;3.10;;
31730;SDS011;18310;55.586;12.286;2023-02-28T16:40:22;5.43;;;3.42;;
31730;SDS011;18310;55.586;12.286;2023-02-28T16:43:34;7.47;;;3.47;;
31730;SDS011;18310;55.586;12.286;2023-02-28T16:46:39;10.80;;;5.38;;
31730;SDS011;18310;55.586;12.286;2023-02-28T16:49:45;8.80;;;4.72;;
31730;SDS011;18310;55.586;12.286;2023-02-28T16:52:50;13.35;;;5.65;;
31730;SDS011;18310;55.586;12.286;2023-02-28T16:55:56;10.07;;;4.43;;
31730;SDS011;18310;55.586;12.286;2023-02-28T16:59:07;8.80;;;4.10;;
31730;SDS011;18310;55.586;12.286;2023-02-28T17:02:14;8.60;;;4.07;;
31730;SDS011;18310;55.586;12.286;2023-02-28T17:05:23;8.05;;;3.75;;
31730;SDS011;18310;55.586;12.286;2023-02-28T17:08:28;7.57;;;3.72;;
31730;SDS011;18310;55.586;12.286;2023-02-28T17:11:49;5.93;;;2.97;;
31730;SDS011;18310;55.586;12.286;2023-02-28T17:14:55;10.80;;;5.03;;
31730;SDS011;18310;55.586;12.286;2023-02-28T17:18:00;6.82;;;3.90;;
31730;SDS011;18310;55.586;12.286;2023-02-28T17:21:09;8.35;;;3.95;;
31730;SDS011;18310;55.586;12.286;2023-02-28T17:24:17;10.05;;;4.85;;
31730;SDS011;18310;55.586;12.286;2023-02-28T17:27:32;8.15;;;3.92;;
31730;SDS011;18310;55.586;12.286;2023-02-28T17:30:38;10.00;;;5.55;;
31730;SDS011;18310;55.586;12.286;2023-02-28T17:33:54;10.57;;;5.55;;
31730;SDS011;18310;55.586;12.286;2023-02-28T17:36:58;11.70;;;6.43;;
31730;SDS011;18310;55.586;12.286;2023-02-28T17:40:05;12.32;;;5.57;;
31730;SDS011;18310;55.586;12.286;2023-02-28T17:43:16;10.57;;;5.70;;
31730;SDS011;18310;55.586;12.286;2023-02-28T17:46:24;10.52;;;5.38;;
31730;SDS011;18310;55.586;12.286;2023-02-28T17:49:30;10.23;;;5.63;;
31730;SDS011;18310;55.586;12.286;2023-02-28T17:52:34;9.70;;;5.18;;
31730;SDS011;18310;55.586;12.286;2023-02-28T17:55:38;12.63;;;5.38;;
31730;SDS011;18310;55.586;12.286;2023-02-28T18:01:50;11.18;;;5.90;;
31730;SDS011;18310;55.586;12.286;2023-02-28T18:04:54;15.25;;;5.72;;
31730;SDS011;18310;55.586;12.286;2023-02-28T18:07:59;12.90;;;6.28;;
31730;SDS011;18310;55.586;12.286;2023-02-28T18:14:08;9.85;;;4.43;;
31730;SDS011;18310;55.586;12.286;2023-02-28T18:17:17;9.57;;;4.63;;
31730;SDS011;18310;55.586;12.286;2023-02-28T18:20:22;11.57;;;4.88;;
31730;SDS011;18310;55.586;12.286;2023-02-28T18:23:25;10.57;;;4.40;;
31730;SDS011;18310;55.586;12.286;2023-02-28T18:26:33;11.02;;;5.07;;
31730;SDS011;18310;55.586;12.286;2023-02-28T18:29:38;11.15;;;5.93;;
31730;SDS011;18310;55.586;12.286;2023-02-28T18:32:44;13.95;;;7.53;;
31730;SDS011;18310;55.586;12.286;2023-02-28T18:35:54;25.85;;;11.30;;
31730;SDS011;18310;55.586;12.286;2023-02-28T18:38:58;21.67;;;11.25;;
31730;SDS011;18310;55.586;12.286;2023-02-28T18:42:02;21.40;;;10.25;;
31730;SDS011;18310;55.586;12.286;2023-02-28T18:45:07;16.13;;;8.10;;
31730;SDS011;18310;55.586;12.286;2023-02-28T18:48:14;11.80;;;5.97;;
31730;SDS011;18310;55.586;12.286;2023-02-28T18:51:20;12.10;;;6.32;;
31730;SDS011;18310;55.586;12.286;2023-02-28T18:54:32;11.63;;;5.50;;
31730;SDS011;18310;55.586;12.286;2023-02-28T18:58:02;13.13;;;6.43;;
31730;SDS011;18310;55.586;12.286;2023-02-28T19:01:12;10.50;;;5.35;;
31730;SDS011;18310;55.586;12.286;2023-02-28T19:04:23;11.18;;;5.60;;
31730;SDS011;18310;55.586;12.286;2023-02-28T19:07:38;13.52;;;5.70;;
31730;SDS011;18310;55.586;12.286;2023-02-28T19:14:18;10.98;;;4.68;;
31730;SDS011;18310;55.586;12.286;2023-02-28T19:17:44;10.82;;;4.70;;
31730;SDS011;18310;55.586;12.286;2023-02-28T19:21:26;13.43;;;6.25;;
31730;SDS011;18310;55.586;12.286;2023-02-28T19:24:36;9.18;;;5.50;;
31730;SDS011;18310;55.586;12.286;2023-02-28T19:27:41;11.23;;;5.45;;
31730;SDS011;18310;55.586;12.286;2023-02-28T19:30:45;17.17;;;7.85;;
31730;SDS011;18310;55.586;12.286;2023-02-28T19:33:52;11.85;;;6.72;;
31730;SDS011;18310;55.586;12.286;2023-02-28T19:37:00;12.65;;;6.78;;